Time;durP1;ratioP1;P1;durP2;ratioP2;P2;SDS_P1;SDS_P2;PMS_P1;PMS_P2;Temp;Humidity;BMP_temperature;BMP_pressure;BME280_temperature;BME280_humidity;BME280_pressure;Samples;Min_cycle;Max_cycle;Signal;HPM_P1;HPM_P2
2021/03/23 00:01:00;;;;;;;14.23;6.25;;;;;;;2.06;74.26;97433.69;5002339;28;20051;-64
2021/03/23 00:03:31;;;;;;;17.17;6.70;;;;;;;2.13;74.94;97437.94;5016088;28;20052;-63
2021/03/23 00:05:58;;;;;;;16.35;6.53;;;;;;;2.32;74.32;97437.91;5021320;28;20049;-62
2021/03/23 00:08:38;;;;;;;11.85;6.10;;;;;;;2.29;73.96;97436.59;5014428;28;20045;-63
2021/03/23 00:11:21;;;;;;;11.65;5.05;;;;;;;2.21;74.83;97440.75;5017602;28;20092;-63
2021/03/23 00:13:48;;;;;;;17.73;6.25;;;;;;;2.11;74.89;97435.53;5021480;28;20509;-63
2021/03/23 00:16:15;;;;;;;10.48;5.40;;;;;;;1.88;75.54;97445.31;5016403;28;20045;-66
2021/03/23 00:18:41;;;;;;;12.35;6.30;;;;;;;1.79;75.57;97438.97;5020311;28;20402;-62
2021/03/23 00:21:07;;;;;;;15.50;5.75;;;;;;;1.79;75.61;97437.06;5015993;28;20042;-62
2021/03/23 00:23:32;;;;;;;15.52;5.90;;;;;;;1.79;75.46;97433.56;5020020;28;20054;-63
2021/03/23 00:25:58;;;;;;;20.42;7.43;;;;;;;1.69;76.40;97439.88;5020867;28;20390;-63
2021/03/23 00:28:24;;;;;;;21.70;6.40;;;;;;;1.63;76.39;97438.34;5011011;28;20335;-63
2021/03/23 00:30:54;;;;;;;12.00;5.70;;;;;;;1.64;75.86;97431.84;5020948;28;20052;-61
2021/03/23 00:33:19;;;;;;;;;;;;;;;1.72;75.94;97433.91;5016363;28;20048;-64
2021/03/23 00:35:45;;;;;;;17.15;7.22;;;;;;;1.62;76.41;97424.06;5019896;28;19913;-64
2021/03/23 00:38:11;;;;;;;13.50;6.32;;;;;;;1.54;76.71;97427.41;5011003;28;20033;-62
2021/03/23 00:40:38;;;;;;;11.63;5.47;;;;;;;1.49;76.43;97428.25;5020880;28;20069;-63
2021/03/23 00:43:06;;;;;;;11.13;5.80;;;;;;;1.46;77.06;97423.47;5018388;28;20037;-63
2021/03/23 00:45:35;;;;;;;12.93;5.80;;;;;;;1.44;76.59;97422.94;5020715;28;20045;-63
2021/03/23 00:48:01;;;;;;;12.02;6.53;;;;;;;1.44;77.50;97419.44;5020471;28;20183;-64
2021/03/23 00:50:26;;;;;;;13.10;5.72;;;;;;;1.42;77.68;97419.72;5013585;28;20136;-64
2021/03/23 00:52:51;;;;;;;11.95;6.25;;;;;;;1.40;77.55;97421.91;5017396;28;20089;-63
2021/03/23 00:55:17;;;;;;;12.52;6.10;;;;;;;1.41;77.53;97414.63;5014460;28;20038;-63
2021/03/23 00:57:42;;;;;;;15.98;6.22;;;;;;;1.38;77.39;97426.78;5021131;28;20136;-64
2021/03/23 01:00:14;;;;;;;19.63;6.22;;;;;;;1.39;77.25;97420.31;5012974;28;20501;-62
2021/03/23 01:02:40;;;;;;;11.43;5.53;;;;;;;1.43;77.40;97421.31;5020864;28;20058;-62
2021/03/23 01:05:06;;;;;;;12.13;5.70;;;;;;;1.51;77.72;97423.41;5017819;28;20104;-62
2021/03/23 01:07:32;;;;;;;10.85;5.63;;;;;;;1.64;77.00;97419.19;5036687;28;20045;-63
2021/03/23 01:09:58;;;;;;;10.60;6.22;;;;;;;1.68;76.44;97422.09;5021139;28;20067;-60
2021/03/23 01:12:23;;;;;;;16.45;6.30;;;;;;;1.56;76.81;97425.22;5021971;28;20327;-63
2021/03/23 01:14:49;;;;;;;15.02;6.65;;;;;;;1.52;77.24;97419.59;5013270;28;20056;-63
2021/03/23 01:17:14;;;;;;;17.13;6.15;;;;;;;1.46;76.85;97418.06;5017639;28;20117;-64
2021/03/23 01:19:39;;;;;;;15.35;6.18;;;;;;;1.45;77.05;97419.13;5021039;28;20042;-63
2021/03/23 01:22:05;;;;;;;13.57;6.40;;;;;;;1.51;77.20;97422.56;5021548;28;20068;-63
2021/03/23 01:24:30;;;;;;;13.15;6.75;;;;;;;1.55;76.07;97422.78;5033404;28;20615;-64
2021/03/23 01:26:56;;;;;;;18.25;6.15;;;;;;;1.61;76.58;97421.66;5033000;28;20068;-64
2021/03/23 01:29:21;;;;;;;14.35;6.38;;;;;;;1.67;76.96;97425.88;5017912;28;20046;-63
2021/03/23 01:31:47;;;;;;;13.38;6.43;;;;;;;1.68;76.15;97420.19;5023390;28;20052;-64
2021/03/23 01:34:12;;;;;;;18.40;7.22;;;;;;;1.70;76.74;97411.81;5019717;28;20041;-64
2021/03/23 01:36:37;;;;;;;20.65;7.18;;;;;;;1.71;76.82;97419.63;5024001;28;20045;-62
2021/03/23 01:39:04;;;;;;;13.27;6.68;;;;;;;1.87;77.01;97414.81;5012794;28;20044;-63
2021/03/23 01:41:29;;;;;;;13.15;6.28;;;;;;;1.87;76.11;97424.78;5027659;28;20057;-64
2021/03/23 01:43:55;;;;;;;13.25;6.63;;;;;;;1.85;76.31;97416.19;5014634;28;20054;-64
2021/03/23 01:46:44;;;;;;;12.70;6.05;;;;;;;1.96;76.88;97412.22;5022035;28;20682;-64
2021/03/23 01:49:19;;;;;;;;;;;;;;;2.05;76.18;97402.38;5019585;28;20402;-64
2021/03/23 01:51:48;;;;;;;10.23;5.40;;;;;;;2.09;76.42;97408.78;5023954;28;19913;-64
2021/03/23 01:54:21;;;;;;;9.35;5.57;;;;;;;2.08;76.27;97419.91;5018595;28;20048;-63
2021/03/23 01:56:49;;;;;;;14.18;6.10;;;;;;;2.00;76.70;97409.75;5023742;28;20136;-64
2021/03/23 01:59:14;;;;;;;13.85;6.43;;;;;;;1.99;77.02;97411.66;5030447;28;20045;-62
2021/03/23 02:01:40;;;;;;;16.85;5.88;;;;;;;1.91;77.11;97402.31;5043995;28;20049;-64
2021/03/23 02:04:06;;;;;;;16.98;7.05;;;;;;;1.99;76.87;97408.16;5018976;28;20442;-64
2021/03/23 02:06:42;;;;;;;10.88;5.88;;;;;;;2.18;77.00;97410.81;5021256;28;20071;-65
2021/03/23 02:09:16;;;;;;;15.68;5.93;;;;;;;2.06;76.77;97408.59;5017769;28;20384;-68
2021/03/23 02:11:50;;;;;;;16.23;6.30;;;;;;;1.95;77.74;97405.22;5024019;28;20041;-63
2021/03/23 02:14:17;;;;;;;8.80;5.20;;;;;;;1.75;78.14;97403.63;5019344;28;20033;-63
2021/03/23 02:16:43;;;;;;;16.52;6.55;;;;;;;1.70;78.26;97406.41;5022817;28;20042;-62
2021/03/23 02:19:10;;;;;;;11.65;5.65;;;;;;;1.69;78.32;97410.19;5016736;28;20120;-65
2021/03/23 02:21:35;;;;;;;15.27;6.85;;;;;;;1.75;78.23;97414.44;5022494;28;20043;-64
2021/03/23 02:24:01;;;;;;;13.80;6.43;;;;;;;1.86;78.11;97410.47;5022913;28;20041;-65
2021/03/23 02:26:33;;;;;;;22.25;5.65;;;;;;;1.94;77.95;97405.53;5018158;28;20053;-63
2021/03/23 02:29:12;;;;;;;13.30;5.40;;;;;;;1.86;78.25;97407.00;5022718;28;20042;-64
2021/03/23 02:31:43;;;;;;;14.23;5.78;;;;;;;1.76;78.59;97407.91;5004981;28;20076;-64
2021/03/23 02:34:11;;;;;;;11.93;5.65;;;;;;;1.58;79.61;97409.53;5016846;28;20093;-65
2021/03/23 02:36:38;;;;;;;12.65;6.25;;;;;;;1.38;79.87;97409.78;5022492;28;20103;-64
2021/03/23 02:39:10;;;;;;;14.35;5.97;;;;;;;1.21;80.64;97413.78;5017847;28;20068;-63
2021/03/23 02:41:36;;;;;;;15.45;6.68;;;;;;;1.15;81.27;97412.22;5022233;28;20041;-65
2021/03/23 02:44:02;;;;;;;11.38;5.53;;;;;;;1.21;81.05;97407.59;5022578;28;20504;-62
2021/03/23 02:46:27;;;;;;;15.02;5.57;;;;;;;1.35;81.50;97405.75;5019097;28;20056;-65
2021/03/23 02:48:53;;;;;;;15.20;6.03;;;;;;;1.48;81.24;97407.78;5022854;28;20041;-62
2021/03/23 02:51:19;;;;;;;12.57;5.90;;;;;;;1.48;80.40;97391.56;5017425;28;20156;-65
2021/03/23 02:53:45;;;;;;;14.32;5.82;;;;;;;1.31;79.73;97399.34;5021575;28;20052;-63
2021/03/23 02:56:11;;;;;;;11.48;5.40;;;;;;;1.20;80.91;97397.88;5001108;28;20377;-63
2021/03/23 02:58:36;;;;;;;10.95;5.57;;;;;;;1.13;80.74;97401.72;5018260;28;20100;-63
2021/03/23 03:01:04;;;;;;;15.48;5.53;;;;;;;1.14;81.34;97399.84;5026272;28;20033;-61
2021/03/23 03:03:29;;;;;;;17.00;6.70;;;;;;;1.02;81.04;97400.22;5022341;28;20115;-65
2021/03/23 03:05:55;;;;;;;13.85;6.43;;;;;;;0.88;82.27;97400.13;5021325;28;20426;-65
2021/03/23 03:08:21;;;;;;;18.02;7.03;;;;;;;0.85;81.95;97406.09;5016272;28;20426;-64
2021/03/23 03:10:47;;;;;;;15.35;6.18;;;;;;;0.86;81.86;97406.88;5022320;28;20041;-65
2021/03/23 03:13:13;;;;;;;12.93;5.80;;;;;;;1.00;82.24;97407.00;5016993;28;20073;-62
2021/03/23 03:15:38;;;;;;;15.75;5.72;;;;;;;1.11;82.31;97403.88;5021326;28;20042;-65
2021/03/23 03:18:04;;;;;;;14.00;5.50;;;;;;;1.19;81.64;97407.88;5017591;28;20049;-61
2021/03/23 03:20:29;;;;;;;10.57;5.50;;;;;;;1.25;82.22;97414.81;5004203;28;20065;-64
2021/03/23 03:22:55;;;;;;;9.82;5.40;;;;;;;1.33;81.63;97411.47;5003600;28;20042;-65
2021/03/23 03:25:21;;;;;;;13.50;5.60;;;;;;;1.44;80.85;97414.03;5015507;28;20064;-61
2021/03/23 03:27:47;;;;;;;12.35;5.93;;;;;;;1.41;81.39;97415.41;5019283;28;20052;-65
2021/03/23 03:30:25;;;;;;;12.77;5.47;;;;;;;1.26;81.09;97418.28;5009550;28;20041;-63
2021/03/23 03:32:52;;;;;;;16.35;6.28;;;;;;;1.16;81.84;97411.13;5013643;28;20095;-65
2021/03/23 03:35:19;;;;;;;15.32;5.75;;;;;;;1.15;81.96;97412.22;5005154;28;20051;-65
2021/03/23 03:37:46;;;;;;;10.18;5.25;;;;;;;1.07;82.31;97416.34;5033443;28;20037;-63
2021/03/23 03:40:17;;;;;;;9.07;5.60;;;;;;;0.90;82.30;97424.09;5026949;28;20049;-63
2021/03/23 03:42:43;;;;;;;10.32;5.57;;;;;;;0.82;83.28;97417.44;5017924;28;20490;-62
2021/03/23 03:45:09;;;;;;;12.70;6.63;;;;;;;0.75;83.52;97420.47;5014716;28;20038;-65
2021/03/23 03:47:35;;;;;;;12.48;5.68;;;;;;;0.74;83.43;97418.06;5021099;28;20037;-65
2021/03/23 03:50:01;;;;;;;14.00;5.50;;;;;;;0.67;83.15;97426.50;5021614;28;20065;-64
2021/03/23 03:52:26;;;;;;;12.25;6.28;;;;;;;0.48;83.23;97423.69;5010022;28;20132;-63
2021/03/23 03:54:52;;;;;;;17.42;6.80;;;;;;;0.26;84.63;97416.06;5019395;28;20371;-63
2021/03/23 03:57:18;;;;;;;13.93;6.40;;;;;;;0.14;84.56;97421.81;5007472;28;20128;-64
2021/03/23 03:59:43;;;;;;;15.45;7.05;;;;;;;-0.22;86.93;97419.38;5013989;28;20053;-63
2021/03/23 04:02:08;;;;;;;14.82;7.13;;;;;;;-0.54;88.53;97427.91;5016594;28;20048;-63
2021/03/23 04:04:34;;;;;;;18.95;7.75;;;;;;;-0.65;89.52;97429.00;5012164;28;20042;-63
2021/03/23 04:06:59;;;;;;;16.67;8.02;;;;;;;-0.71;89.60;97430.13;5021923;28;20128;-62
2021/03/23 04:09:25;;;;;;;11.95;6.70;;;;;;;-0.62;89.83;97426.56;5016439;28;20049;-65
2021/03/23 04:11:50;;;;;;;20.27;8.07;;;;;;;-0.46;89.44;97429.19;5012059;28;20521;-65
2021/03/23 04:14:16;;;;;;;14.80;6.85;;;;;;;-0.40;88.83;97428.91;5021954;28;20052;-62
2021/03/23 04:16:41;;;;;;;20.83;8.00;;;;;;;-0.36;88.61;97429.16;5048220;28;20052;-65
2021/03/23 04:19:07;;;;;;;13.85;7.22;;;;;;;-0.37;88.26;97432.13;5023257;28;20107;-60
2021/03/23 04:21:33;;;;;;;13.50;6.72;;;;;;;-0.50;87.98;97437.03;5023416;28;20048;-65
2021/03/23 04:23:58;;;;;;;16.33;7.80;;;;;;;-0.57;88.19;97433.03;5018862;28;20064;-64
2021/03/23 04:26:24;;;;;;;18.23;8.82;;;;;;;-0.55;88.17;97438.94;4991494;28;20049;-63
2021/03/23 04:28:49;;;;;;;14.38;6.95;;;;;;;-0.55;88.43;97428.16;5019455;28;20138;-65
2021/03/23 04:31:26;;;;;;;15.80;7.40;;;;;;;-0.59;88.39;97436.78;5013754;28;20042;-65
2021/03/23 04:33:52;;;;;;;14.15;7.82;;;;;;;-0.73;88.02;97433.09;5020284;28;20048;-64
2021/03/23 04:36:17;;;;;;;15.80;6.90;;;;;;;-0.88;87.05;97435.81;5014084;28;20517;-65
2021/03/23 04:38:43;;;;;;;17.40;7.38;;;;;;;-0.92;87.19;97432.06;5000617;28;20049;-64
2021/03/23 04:41:11;;;;;;;18.80;6.97;;;;;;;-0.87;87.94;97432.84;5012594;28;20045;-64
2021/03/23 04:43:46;;;;;;;14.00;7.03;;;;;;;-0.89;88.28;97444.97;5016939;28;20088;-63
2021/03/23 04:46:13;;;;;;;13.35;7.03;;;;;;;-0.83;88.37;97451.94;5001634;28;20037;-64
2021/03/23 04:48:39;;;;;;;14.55;7.03;;;;;;;-0.87;88.35;97446.31;5021686;28;20105;-63
2021/03/23 04:51:06;;;;;;;17.33;7.43;;;;;;;-0.85;88.70;97443.34;5015848;28;20052;-63
2021/03/23 04:53:35;;;;;;;17.15;8.02;;;;;;;-1.04;87.62;97443.16;5020831;28;20478;-64
2021/03/23 04:56:02;;;;;;;14.40;8.20;;;;;;;-1.20;88.81;97455.81;5026261;28;20038;-63
2021/03/23 04:58:27;;;;;;;21.20;9.55;;;;;;;-1.35;89.00;97446.69;5011974;28;20064;-62
2021/03/23 05:00:54;;;;;;;12.80;7.20;;;;;;;-1.36;88.74;97445.06;5024485;28;20139;-63
2021/03/23 05:03:27;;;;;;;18.33;8.07;;;;;;;-1.35;89.10;97443.22;5019481;28;20056;-63
2021/03/23 05:05:54;;;;;;;14.65;7.47;;;;;;;-1.31;89.39;97456.91;5015495;28;20552;-65
2021/03/23 05:08:20;;;;;;;16.35;7.13;;;;;;;-1.23;89.43;97456.34;5019126;28;20378;-63
2021/03/23 05:10:46;;;;;;;24.55;9.45;;;;;;;-1.26;89.34;97462.25;5023566;28;20508;-65
2021/03/23 05:13:11;;;;;;;26.55;8.88;;;;;;;-1.36;89.08;97461.19;5003802;28;20045;-63
2021/03/23 05:15:37;;;;;;;19.23;9.68;;;;;;;-1.46;89.13;97468.47;5015713;28;20109;-65
2021/03/23 05:18:02;;;;;;;21.80;9.55;;;;;;;-1.57;90.34;97462.28;5027706;28;20076;-61
2021/03/23 05:20:28;;;;;;;33.30;10.45;;;;;;;-1.69;90.96;97464.44;5023649;28;20082;-65
2021/03/23 05:22:53;;;;;;;21.45;8.93;;;;;;;-1.93;91.59;97467.66;5025417;28;20176;-65
2021/03/23 05:25:19;;;;;;;21.73;9.80;;;;;;;-2.08;92.07;97470.31;5023340;28;20590;-63
2021/03/23 05:27:44;;;;;;;19.88;10.75;;;;;;;-2.14;93.25;97472.19;5033730;28;20045;-63
2021/03/23 05:30:11;;;;;;;20.88;10.63;;;;;;;-2.27;93.45;97478.84;5014669;28;20038;-64
2021/03/23 05:32:36;;;;;;;21.60;10.63;;;;;;;-2.24;93.74;97477.53;5026206;28;20045;-65
2021/03/23 05:35:04;;;;;;;20.98;9.40;;;;;;;-2.15;93.75;97470.56;5010886;28;20088;-62
2021/03/23 05:37:30;;;;;;;21.92;10.00;;;;;;;-1.69;94.72;97475.19;5028639;28;20155;-65
2021/03/23 05:39:55;;;;;;;26.75;9.98;;;;;;;-1.07;94.36;97474.06;5023184;28;20503;-66
2021/03/23 05:42:35;;;;;;;22.67;10.52;;;;;;;-0.34;92.57;97480.00;5019248;28;20056;-63
2021/03/23 05:45:14;;;;;;;19.95;8.20;;;;;;;0.48;88.82;97490.28;5019440;28;20051;-66
2021/03/23 05:47:43;;;;;;;17.25;8.15;;;;;;;1.34;86.92;97485.16;5025992;28;20052;-63
2021/03/23 05:50:16;;;;;;;18.17;8.00;;;;;;;2.02;78.75;97483.22;5024291;28;20109;-64
2021/03/23 05:52:52;;;;;;;17.63;7.75;;;;;;;2.91;74.11;97481.56;5020498;28;20080;-64
2021/03/23 05:55:26;;;;;;;17.08;6.90;;;;;;;3.71;71.16;97480.31;4980026;28;20033;-64
2021/03/23 05:57:52;;;;;;;13.48;6.70;;;;;;;4.43;64.33;97486.06;5022300;28;20119;-64
2021/03/23 06:00:25;;;;;;;19.02;8.30;;;;;;;5.03;61.98;97480.25;5000967;28;20483;-65
2021/03/23 06:03:18;;;;;;;20.77;8.20;;;;;;;6.11;59.03;97480.00;5014895;28;20117;-64
2021/03/23 06:05:58;;;;;;;18.35;7.50;;;;;;;6.90;56.72;97478.06;5029769;28;20136;-64
2021/03/23 06:08:27;;;;;;;;;;;;;;;7.74;54.12;97478.41;5017896;28;20236;-65
2021/03/23 06:11:04;;;;;;;16.42;7.53;;;;;;;7.59;52.44;97479.75;5019942;28;20349;-67
2021/03/23 06:13:42;;;;;;;16.25;7.65;;;;;;;7.02;55.92;97478.19;5016505;28;20048;-65
2021/03/23 06:16:30;;;;;;;18.02;7.63;;;;;;;6.09;58.24;97482.25;5012151;28;20038;-64
2021/03/23 06:19:09;;;;;;;18.15;8.10;;;;;;;6.73;56.83;97494.41;5023344;28;20425;-65
2021/03/23 06:21:46;;;;;;;17.20;7.07;;;;;;;5.79;57.95;97486.63;4997431;28;20042;-63
2021/03/23 06:24:27;;;;;;;19.55;8.23;;;;;;;5.03;62.62;97485.69;4998208;28;20049;-66
2021/03/23 06:26:58;;;;;;;13.80;7.28;;;;;;;4.64;62.96;97487.19;5016811;28;20071;-66
2021/03/23 06:29:47;;;;;;;16.48;7.88;;;;;;;2.79;70.38;97490.97;5027675;28;20037;-62
2021/03/23 06:32:21;;;;;;;19.52;8.98;;;;;;;3.05;70.29;97491.31;5031087;28;20364;-64
2021/03/23 06:34:53;;;;;;;19.35;8.93;;;;;;;3.51;69.40;97489.66;5023082;28;20047;-63
2021/03/23 06:37:24;;;;;;;19.88;8.70;;;;;;;4.48;65.98;97497.59;5017545;28;20046;-62
2021/03/23 06:39:50;;;;;;;17.17;7.28;;;;;;;4.52;64.49;97492.34;5022475;28;20053;-63
2021/03/23 06:42:39;;;;;;;15.65;6.82;;;;;;;4.64;64.23;97492.59;5017631;28;20041;-65
2021/03/23 06:45:17;;;;;;;18.37;8.90;;;;;;;4.47;65.37;97501.44;4997725;28;20049;-62
2021/03/23 06:47:42;;;;;;;17.95;7.80;;;;;;;4.24;65.93;97502.50;4992658;28;20077;-64
2021/03/23 06:50:15;;;;;;;17.75;8.45;;;;;;;4.19;65.08;97504.22;5017083;28;20042;-60
2021/03/23 06:52:42;;;;;;;18.67;9.20;;;;;;;4.00;67.46;97509.00;5020663;28;20037;-66
2021/03/23 06:55:19;;;;;;;17.23;8.85;;;;;;;4.34;65.33;97508.50;5017243;28;20462;-65
2021/03/23 06:57:45;;;;;;;19.52;8.73;;;;;;;4.30;66.51;97501.28;5003426;28;20048;-63
2021/03/23 07:00:14;;;;;;;20.63;8.38;;;;;;;4.15;66.70;97515.97;5017031;28;20037;-64
2021/03/23 07:02:43;;;;;;;17.98;8.63;;;;;;;4.35;66.79;97512.00;5003540;28;20049;-64
2021/03/23 07:05:17;;;;;;;20.77;9.10;;;;;;;4.00;67.73;97509.78;4996602;28;20069;-63
2021/03/23 07:08:03;;;;;;;16.05;8.00;;;;;;;3.82;66.81;97514.22;5039321;28;20041;-64
2021/03/23 07:10:35;;;;;;;18.95;7.45;;;;;;;5.26;61.84;97519.03;5023824;28;20049;-63
2021/03/23 07:13:00;;;;;;;19.40;8.13;;;;;;;6.08;59.25;97524.16;5021077;28;20042;-64
2021/03/23 07:15:32;;;;;;;18.40;7.65;;;;;;;4.51;63.19;97517.91;5016550;28;20368;-63
2021/03/23 07:17:59;;;;;;;19.55;7.88;;;;;;;5.51;61.86;97522.16;5011055;28;20038;-64
2021/03/23 07:20:27;;;;;;;20.88;8.45;;;;;;;4.54;63.47;97526.22;5013720;28;20443;-61
2021/03/23 07:22:53;;;;;;;17.02;7.70;;;;;;;5.49;60.72;97524.41;4994332;28;20050;-63
2021/03/23 07:25:42;;;;;;;20.40;8.55;;;;;;;4.98;60.38;97526.53;5012037;28;20089;-64
2021/03/23 07:28:26;;;;;;;14.73;6.50;;;;;;;5.98;59.00;97524.44;5004891;28;20061;-64
2021/03/23 07:31:06;;;;;;;22.67;9.07;;;;;;;5.26;60.23;97535.34;5019949;28;20073;-64
2021/03/23 07:33:43;;;;;;;16.40;6.85;;;;;;;6.40;56.86;97531.06;5020873;28;20560;-61
2021/03/23 07:36:14;;;;;;;15.02;5.80;;;;;;;5.14;59.54;97532.38;5014610;28;20037;-64
2021/03/23 07:39:07;;;;;;;15.90;6.70;;;;;;;5.20;60.75;97538.47;5045327;27;20395;-64
2021/03/23 07:41:40;;;;;;;18.25;8.38;;;;;;;5.29;60.63;97542.84;5009652;28;20045;-63
2021/03/23 07:44:37;;;;;;;14.13;6.35;;;;;;;6.67;56.65;97534.63;5027163;28;20132;-64
2021/03/23 07:47:28;;;;;;;13.77;6.30;;;;;;;7.27;52.75;97527.47;5011270;28;20108;-63
2021/03/23 07:50:18;;;;;;;11.48;5.95;;;;;;;6.35;53.51;97536.66;5017677;28;20042;-64
2021/03/23 07:53:10;;;;;;;13.23;5.32;;;;;;;6.15;55.39;97537.28;5022413;28;20512;-64
2021/03/23 07:55:36;;;;;;;18.77;5.22;;;;;;;7.85;51.90;97530.66;5030715;28;20656;-65
2021/03/23 07:58:17;;;;;;;17.33;5.72;;;;;;;10.22;44.49;97532.78;5029765;28;20061;-64
2021/03/23 08:01:00;;;;;;;14.95;4.88;;;;;;;7.42;49.81;97520.72;5048665;28;20049;-63
2021/03/23 08:04:00;;;;;;;12.85;4.88;;;;;;;7.87;49.22;97525.69;5052287;28;20095;-64
2021/03/23 08:06:56;;;;;;;19.35;4.85;;;;;;;8.69;48.35;97527.25;4999643;28;20073;-64
2021/03/23 08:09:58;;;;;;;10.13;4.45;;;;;;;8.73;46.43;97525.44;5012536;28;22103;-64
2021/03/23 08:12:45;;;;;;;15.68;5.45;;;;;;;10.06;43.56;97529.94;5014262;28;20053;-64
2021/03/23 08:15:22;;;;;;;14.05;5.35;;;;;;;10.61;41.85;97535.97;4993192;28;20042;-64
2021/03/23 08:18:19;;;;;;;15.20;5.45;;;;;;;9.11;45.32;97522.53;5027823;28;20048;-64
2021/03/23 08:20:57;;;;;;;17.98;5.45;;;;;;;10.18;43.21;97531.91;5030268;28;20049;-64
2021/03/23 08:23:30;;;;;;;19.50;5.22;;;;;;;9.39;43.22;97530.13;5009119;28;20179;-63
2021/03/23 08:26:18;;;;;;;15.77;5.15;;;;;;;8.97;43.90;97528.28;5026162;28;20038;-64
2021/03/23 08:28:55;;;;;;;15.48;6.05;;;;;;;8.13;46.98;97530.97;5044788;28;20041;-64
2021/03/23 08:31:24;;;;;;;16.42;5.95;;;;;;;10.25;42.74;97541.13;5033826;28;20037;-66
2021/03/23 08:34:11;;;;;;;11.65;6.28;;;;;;;7.29;50.66;97538.84;5042849;28;20056;-66
2021/03/23 08:36:42;;;;;;;20.23;6.88;;;;;;;6.63;51.30;97539.91;5036151;28;20094;-66
2021/03/23 08:39:42;;;;;;;16.75;6.72;;;;;;;5.94;53.19;97544.09;5032189;28;20051;-66
2021/03/23 08:42:15;;;;;;;16.20;7.10;;;;;;;6.37;52.37;97548.03;5032190;28;20441;-66
2021/03/23 08:44:45;;;;;;;13.70;5.78;;;;;;;8.33;48.01;97547.72;5054050;28;20076;-65
2021/03/23 08:47:33;;;;;;;15.00;6.10;;;;;;;7.95;48.19;97546.63;5052826;28;20052;-66
2021/03/23 08:50:05;;;;;;;23.20;9.02;;;;;;;8.46;48.64;97545.88;5030922;28;20048;-66
2021/03/23 08:52:30;;;;;;;13.88;5.53;;;;;;;7.96;48.60;97547.44;5010069;28;20037;-65
2021/03/23 08:54:57;;;;;;;13.15;5.97;;;;;;;10.30;42.95;97554.59;5019417;28;20037;-64
2021/03/23 08:57:22;;;;;;;17.23;5.05;;;;;;;11.21;40.32;97542.34;5006010;28;20061;-64
2021/03/23 08:59:52;;;;;;;22.55;5.22;;;;;;;9.80;44.57;97536.56;4998562;28;20060;-63
2021/03/23 09:02:18;;;;;;;12.45;4.93;;;;;;;10.63;40.90;97550.13;5000683;28;20493;-64
2021/03/23 09:04:49;;;;;;;14.52;5.35;;;;;;;10.77;40.90;97536.84;5042828;28;20086;-65
2021/03/23 09:07:15;;;;;;;17.75;6.22;;;;;;;11.09;40.93;97532.25;5029476;28;20083;-65
2021/03/23 09:09:47;;;;;;;23.40;5.13;;;;;;;12.07;38.29;97534.78;5003453;28;20041;-66
2021/03/23 09:12:37;;;;;;;9.70;4.50;;;;;;;12.14;37.14;97530.22;4998072;28;20068;-65
2021/03/23 09:15:08;;;;;;;11.02;4.28;;;;;;;12.37;37.44;97532.31;5009836;28;20030;-63
2021/03/23 09:17:49;;;;;;;13.65;5.43;;;;;;;12.13;37.46;97525.09;5003160;28;20037;-64
2021/03/23 09:20:30;;;;;;;9.05;4.05;;;;;;;9.81;41.74;97538.16;4995768;28;20115;-66
2021/03/23 09:23:19;;;;;;;10.57;5.10;;;;;;;11.27;38.83;97532.75;5015782;28;20037;-63
2021/03/23 09:25:53;;;;;;;13.48;5.22;;;;;;;9.64;42.14;97533.69;5002572;28;20061;-62
2021/03/23 09:28:38;;;;;;;12.65;4.50;;;;;;;10.58;40.09;97531.97;4996803;28;20461;-64
2021/03/23 09:31:08;;;;;;;12.57;5.35;;;;;;;12.14;37.37;97521.22;5000357;28;20499;-65
2021/03/23 09:33:51;;;;;;;13.55;4.72;;;;;;;13.47;35.52;97523.94;5002884;28;20073;-64
2021/03/23 09:36:23;;;;;;;10.82;4.07;;;;;;;13.48;34.04;97523.59;5006519;28;20070;-64
2021/03/23 09:38:51;;;;;;;18.45;4.80;;;;;;;12.42;36.22;97526.53;5003395;28;20050;-64
2021/03/23 09:41:22;;;;;;;10.18;4.05;;;;;;;12.77;36.54;97523.78;4998390;28;20046;-63
2021/03/23 09:43:50;;;;;;;13.38;4.50;;;;;;;13.21;35.41;97522.66;5001222;28;20050;-63
2021/03/23 09:46:21;;;;;;;9.48;4.35;;;;;;;13.57;34.89;97523.34;5011477;28;20042;-64
2021/03/23 09:49:18;;;;;;;10.95;3.75;;;;;;;12.95;35.75;97528.84;5002779;28;20038;-64
2021/03/23 09:51:56;;;;;;;14.95;4.65;;;;;;;12.84;37.39;97522.31;5023436;28;20045;-64
2021/03/23 09:54:24;;;;;;;13.18;4.65;;;;;;;12.87;35.82;97513.34;5019645;28;20046;-64
2021/03/23 09:56:51;;;;;;;13.65;5.20;;;;;;;12.96;35.50;97528.50;5026058;28;20056;-64
2021/03/23 09:59:25;;;;;;;8.23;3.72;;;;;;;12.85;36.20;97526.66;5018056;28;20137;-64
2021/03/23 10:02:15;;;;;;;10.98;4.50;;;;;;;12.71;36.93;97524.41;5002734;28;20523;-65
2021/03/23 10:04:41;;;;;;;;;;;;;;;13.01;36.03;97516.38;5032711;28;20128;-63
2021/03/23 10:07:24;;;;;;;9.57;4.70;;;;;;;12.54;36.05;97520.13;5013721;28;20000;-64
2021/03/23 10:09:49;;;;;;;11.23;4.30;;;;;;;12.79;36.58;97515.94;5006256;28;20494;-64
2021/03/23 10:12:28;;;;;;;12.23;4.00;;;;;;;12.72;36.73;97515.03;4995867;28;20037;-65
2021/03/23 10:14:53;;;;;;;10.88;4.70;;;;;;;12.56;37.14;97512.31;5001117;28;20561;-67
2021/03/23 10:17:25;;;;;;;15.40;4.85;;;;;;;12.68;36.98;97512.19;4979144;28;20038;-65
2021/03/23 10:19:54;;;;;;;17.83;5.00;;;;;;;12.38;36.89;97515.47;4981401;28;20092;-62
2021/03/23 10:22:35;;;;;;;9.65;4.28;;;;;;;12.40;37.31;97504.13;4976560;28;20042;-65
2021/03/23 10:25:04;;;;;;;13.68;5.25;;;;;;;12.38;37.07;97517.44;4982295;28;20049;-64
2021/03/23 10:27:32;;;;;;;12.57;5.13;;;;;;;12.16;37.75;97500.47;4999884;28;20049;-63
2021/03/23 10:30:10;;;;;;;11.77;4.70;;;;;;;12.38;36.70;97506.44;5029058;28;20063;-63
2021/03/23 10:32:52;;;;;;;17.40;4.63;;;;;;;12.41;36.76;97498.28;5025446;28;20045;-63
2021/03/23 10:35:22;;;;;;;14.55;4.43;;;;;;;12.37;36.14;97499.34;4999310;28;20069;-62
2021/03/23 10:37:47;;;;;;;10.25;4.13;;;;;;;11.86;37.03;97503.66;5000010;28;20458;-62
2021/03/23 10:40:34;;;;;;;12.52;4.80;;;;;;;11.57;38.05;97495.88;5007147;28;20052;-63
2021/03/23 10:42:59;;;;;;;10.13;4.25;;;;;;;11.38;38.78;97493.81;5021677;28;20045;-62
2021/03/23 10:45:37;;;;;;;9.18;4.20;;;;;;;11.60;37.50;97495.19;5016528;28;20103;-63
2021/03/23 10:48:03;;;;;;;8.85;4.10;;;;;;;11.81;36.44;97490.22;5024340;28;20660;-66
2021/03/23 10:50:30;;;;;;;11.68;4.35;;;;;;;11.73;37.69;97495.88;5028080;28;20065;-63
2021/03/23 10:53:12;;;;;;;9.05;4.60;;;;;;;11.66;37.10;97493.75;5032005;28;20371;-65
2021/03/23 10:55:42;;;;;;;13.60;4.15;;;;;;;11.91;36.84;97491.66;5013277;28;20549;-65
2021/03/23 10:58:18;;;;;;;;;;;;;;;11.47;38.29;97495.25;4996111;28;20061;-63
2021/03/23 11:00:45;;;;;;;10.38;3.70;;;;;;;12.12;36.91;97494.09;5025079;28;19905;-63
2021/03/23 11:03:16;;;;;;;14.45;4.50;;;;;;;12.14;36.46;97489.03;4995519;28;20133;-61
2021/03/23 11:05:45;;;;;;;13.13;3.92;;;;;;;11.26;35.55;97500.19;5024109;28;20041;-64
2021/03/23 11:08:13;;;;;;;10.10;4.10;;;;;;;12.09;36.46;97491.28;5013912;28;20537;-64
2021/03/23 11:10:38;;;;;;;10.38;3.92;;;;;;;11.26;38.06;97489.22;5019774;28;20049;-65
2021/03/23 11:13:04;;;;;;;13.10;4.15;;;;;;;11.11;38.61;97485.31;5017947;28;20041;-64
2021/03/23 11:15:41;;;;;;;12.20;3.85;;;;;;;11.58;38.38;97486.50;5021144;28;20054;-64
2021/03/23 11:18:32;;;;;;;12.77;5.18;;;;;;;11.70;37.58;97480.91;5015393;28;20064;-63
2021/03/23 11:21:00;;;;;;;15.80;4.53;;;;;;;11.65;37.17;97478.47;5029121;28;20137;-63
2021/03/23 11:23:32;;;;;;;15.00;4.63;;;;;;;11.72;36.39;97475.88;5014833;28;20053;-65
2021/03/23 11:25:59;;;;;;;12.85;4.07;;;;;;;11.80;36.56;97472.13;5019770;28;20068;-65
2021/03/23 11:28:25;;;;;;;9.52;3.78;;;;;;;12.51;36.06;97472.16;5015697;28;20954;-65
2021/03/23 11:30:51;;;;;;;10.93;4.50;;;;;;;12.43;35.89;97478.69;5030513;28;20048;-63
2021/03/23 11:33:17;;;;;;;9.13;4.07;;;;;;;11.67;36.98;97481.63;5028895;28;20045;-64
2021/03/23 11:35:46;;;;;;;11.07;4.25;;;;;;;11.63;36.50;97472.50;5040915;28;20120;-64
2021/03/23 11:38:13;;;;;;;14.85;4.70;;;;;;;12.23;35.85;97475.13;5036350;28;20045;-65
2021/03/23 11:40:39;;;;;;;12.98;4.63;;;;;;;12.15;35.81;97471.41;5039628;28;20075;-65
2021/03/23 11:43:07;;;;;;;10.48;3.80;;;;;;;11.56;36.56;97473.13;5017321;28;20379;-63
2021/03/23 11:45:38;;;;;;;9.05;3.85;;;;;;;12.01;36.82;97468.31;5020482;28;20545;-64
2021/03/23 11:48:10;;;;;;;16.13;4.50;;;;;;;12.13;36.47;97481.94;5016495;28;20775;-66
2021/03/23 11:50:37;;;;;;;8.43;3.50;;;;;;;11.61;37.12;97472.88;5021103;28;20038;-65